createdAt,value
2018-12-15T00:00:12.053Z,-0.41
2018-12-15T00:02:41.199Z,-0.41
2018-12-15T00:05:10.433Z,-0.41
2018-12-15T00:07:39.550Z,-0.37
2018-12-15T00:10:08.724Z,-0.33
2018-12-15T00:12:38.136Z,-0.35
2018-12-15T00:15:08.819Z,-0.37
2018-12-15T00:17:37.837Z,-0.38
2018-12-15T00:20:07.790Z,-0.38
2018-12-15T00:22:37.136Z,-0.35
2018-12-15T00:25:06.333Z,-0.38
2018-12-15T00:27:35.416Z,-0.39
2018-12-15T00:30:04.967Z,-0.39
2018-12-15T00:32:35.173Z,-0.40
2018-12-15T00:35:04.557Z,-0.40
2018-12-15T00:37:33.646Z,-0.40
2018-12-15T00:40:02.952Z,-0.40
2018-12-15T00:42:34.150Z,-0.38
2018-12-15T00:45:03.299Z,-0.41
2018-12-15T00:47:33.931Z,-0.42
2018-12-15T00:50:03.102Z,-0.44
2018-12-15T00:52:32.671Z,-0.42
2018-12-15T00:55:01.680Z,-0.42
2018-12-15T00:57:30.740Z,-0.43
2018-12-15T00:59:59.721Z,-0.45
2018-12-15T01:02:28.717Z,-0.47
2018-12-15T01:04:57.880Z,-0.46
2018-12-15T01:07:26.984Z,-0.41
2018-12-15T01:09:56.117Z,-0.41
2018-12-15T01:12:25.291Z,-0.42
2018-12-15T01:14:54.968Z,-0.41
2018-12-15T01:17:24.067Z,-0.42
2018-12-15T01:19:53.142Z,-0.39
2018-12-15T01:22:22.191Z,-0.42
2018-12-15T01:24:51.204Z,-0.40
2018-12-15T01:27:20.289Z,-0.42
2018-12-15T01:29:49.352Z,-0.42
2018-12-15T01:32:18.385Z,-0.41
2018-12-15T01:34:47.457Z,-0.39
2018-12-15T01:37:16.477Z,-0.36
2018-12-15T01:39:45.513Z,-0.39
2018-12-15T01:42:14.740Z,-0.43
2018-12-15T01:44:43.765Z,-0.39
2018-12-15T01:47:12.786Z,-0.36
2018-12-15T01:49:41.769Z,-0.37
2018-12-15T01:52:10.890Z,-0.40
2018-12-15T01:54:39.879Z,-0.40
2018-12-15T01:57:08.897Z,-0.38
2018-12-15T01:59:37.935Z,-0.40
2018-12-15T02:02:07.004Z,-0.44
2018-12-15T02:04:36.171Z,-0.39
2018-12-15T02:07:05.255Z,-0.37
2018-12-15T02:09:34.327Z,-0.35
2018-12-15T02:12:03.534Z,-0.38
2018-12-15T02:14:32.873Z,-0.38
2018-12-15T02:17:01.886Z,-0.41
2018-12-15T02:19:31.168Z,-0.44
2018-12-15T02:22:00.141Z,-0.40
2018-12-15T02:24:29.113Z,-0.40
2018-12-15T02:26:58.116Z,-0.40
2018-12-15T02:29:27.145Z,-0.44
2018-12-15T02:31:56.118Z,-0.49
2018-12-15T02:34:25.257Z,-0.49
2018-12-15T02:36:54.265Z,-0.54
2018-12-15T02:39:23.703Z,-0.59
2018-12-15T02:41:52.713Z,-0.55
2018-12-15T02:44:21.727Z,-0.57
2018-12-15T02:46:50.712Z,-0.52
2018-12-15T02:49:19.707Z,-0.52
2018-12-15T02:51:48.789Z,-0.53
2018-12-15T02:54:18.014Z,-0.55
2018-12-15T02:56:47.102Z,-0.61
2018-12-15T02:59:16.097Z,-0.62
2018-12-15T03:01:45.069Z,-0.62
2018-12-15T03:04:14.134Z,-0.67
2018-12-15T03:06:43.165Z,-0.65
2018-12-15T03:09:12.172Z,-0.66
2018-12-15T03:11:41.359Z,-0.71
2018-12-15T03:14:10.358Z,-0.75
2018-12-15T03:16:49.495Z,-0.72
2018-12-15T03:19:18.466Z,-0.65
2018-12-15T03:21:47.434Z,-0.65
2018-12-15T03:24:16.430Z,-0.66
2018-12-15T03:26:45.479Z,-0.68
2018-12-15T03:29:14.519Z,-0.70
2018-12-15T03:31:43.661Z,-0.74
2018-12-15T03:34:12.644Z,-0.73
2018-12-15T03:36:41.669Z,-0.73
2018-12-15T03:39:10.732Z,-0.69
2018-12-15T03:41:39.718Z,-0.69
2018-12-15T03:44:08.831Z,-0.68
2018-12-15T03:46:38.013Z,-0.73
2018-12-15T03:49:07.936Z,-0.80
2018-12-15T03:51:37.446Z,-0.81
2018-12-15T03:54:06.523Z,-0.75
2018-12-15T03:56:35.520Z,-0.72
2018-12-15T03:59:04.650Z,-0.74
2018-12-15T04:01:33.931Z,-0.80
2018-12-15T04:04:02.999Z,-0.75
2018-12-15T04:06:32.993Z,-0.75
2018-12-15T04:09:01.994Z,-0.66
2018-12-15T04:11:31.008Z,-0.64
2018-12-15T04:14:00.030Z,-0.64
2018-12-15T04:16:29.095Z,-0.64
2018-12-15T04:18:58.094Z,-0.63
2018-12-15T04:21:27.181Z,-0.70
2018-12-15T04:23:56.889Z,-0.73
2018-12-15T04:26:25.982Z,-0.74
2018-12-15T04:29:01.656Z,-0.68
2018-12-15T04:31:30.769Z,-0.65
2018-12-15T04:33:59.766Z,-0.67
2018-12-15T04:36:28.767Z,-0.66
2018-12-15T04:38:58.009Z,-0.62
2018-12-15T04:41:27.099Z,-0.62
2018-12-15T04:43:56.348Z,-0.59
2018-12-15T04:46:25.415Z,-0.59
2018-12-15T04:48:54.430Z,-0.57
2018-12-15T04:51:23.433Z,-0.60
2018-12-15T04:53:52.428Z,-0.56
2018-12-15T04:56:21.432Z,-0.53
2018-12-15T04:58:50.447Z,-0.53
2018-12-15T05:01:19.521Z,-0.55
2018-12-15T05:03:48.514Z,-0.54
2018-12-15T05:06:17.765Z,-0.56
2018-12-15T05:08:46.756Z,-0.55
2018-12-15T05:11:15.762Z,-0.53
2018-12-15T05:13:44.829Z,-0.52
2018-12-15T05:16:13.947Z,-0.56
2018-12-15T05:18:42.955Z,-0.53
2018-12-15T05:21:11.946Z,-0.53
2018-12-15T05:23:40.955Z,-0.55
2018-12-15T05:26:10.108Z,-0.57
2018-12-15T05:28:39.125Z,-0.60
2018-12-15T05:31:08.156Z,-0.67
2018-12-15T05:33:37.746Z,-0.71
2018-12-15T05:36:06.733Z,-0.68
2018-12-15T05:38:35.777Z,-0.72
2018-12-15T05:41:04.824Z,-0.75
2018-12-15T05:43:33.871Z,-0.74
2018-12-15T05:46:02.944Z,-0.70
2018-12-15T05:48:31.999Z,-0.67
2018-12-15T05:51:01.161Z,-0.64
2018-12-15T05:53:30.185Z,-0.62
2018-12-15T05:55:59.251Z,-0.64
2018-12-15T05:58:28.316Z,-0.68
2018-12-15T06:00:57.705Z,-0.69
2018-12-15T06:03:26.705Z,-0.68
2018-12-15T06:05:55.728Z,-0.68
2018-12-15T06:08:24.727Z,-0.69
2018-12-15T06:10:53.825Z,-0.69
2018-12-15T06:13:22.819Z,-0.69
2018-12-15T06:15:51.907Z,-0.66
2018-12-15T06:18:20.960Z,-0.66
2018-12-15T06:20:50.057Z,-0.67
2018-12-15T06:23:19.201Z,-0.68
2018-12-15T06:25:48.193Z,-0.69
2018-12-15T06:28:17.281Z,-0.69
2018-12-15T06:30:49.961Z,-0.69
2018-12-15T06:33:19.272Z,-0.69
2018-12-15T06:35:48.267Z,-0.68
2018-12-15T06:38:17.375Z,-0.67
2018-12-15T06:40:46.369Z,-0.66
2018-12-15T06:43:15.515Z,-0.63
2018-12-15T06:45:45.123Z,-0.64
2018-12-15T06:48:14.375Z,-0.65
2018-12-15T06:50:43.921Z,-0.63
2018-12-15T06:53:13.007Z,-0.62
2018-12-15T06:55:43.388Z,-0.62
2018-12-15T06:58:12.415Z,-0.65
2018-12-15T07:00:41.604Z,-0.65
2018-12-15T07:03:10.708Z,-0.63
2018-12-15T07:05:39.693Z,-0.63
2018-12-15T07:08:09.050Z,-0.65
2018-12-15T07:10:38.978Z,-0.67
2018-12-15T07:13:08.848Z,-0.64
2018-12-15T07:15:37.951Z,-0.64
2018-12-15T07:18:07.027Z,-0.66
2018-12-15T07:20:36.174Z,-0.65
2018-12-15T07:23:05.234Z,-0.64
2018-12-15T07:25:34.525Z,-0.66
2018-12-15T07:28:03.564Z,-0.63
2018-12-15T07:30:32.692Z,-0.60
2018-12-15T07:33:01.787Z,-0.57
2018-12-15T07:35:30.780Z,-0.58
2018-12-15T07:37:59.833Z,-0.58
2018-12-15T07:40:28.862Z,-0.56
2018-12-15T07:42:57.856Z,-0.56
2018-12-15T07:45:27.071Z,-0.56
2018-12-15T07:47:56.140Z,-0.56
2018-12-15T07:50:25.239Z,-0.54
2018-12-15T07:52:54.213Z,-0.56
2018-12-15T07:55:23.350Z,-0.53
2018-12-15T07:57:52.463Z,-0.53
2018-12-15T08:00:22.284Z,-0.51
2018-12-15T08:02:52.025Z,-0.52
2018-12-15T08:05:21.030Z,-0.47
2018-12-15T08:07:51.122Z,-0.47
2018-12-15T08:10:24.786Z,-0.48
2018-12-15T08:13:00.134Z,-0.49
2018-12-15T08:15:29.370Z,-0.46
2018-12-15T08:17:58.498Z,-0.43
2018-12-15T08:20:27.695Z,-0.42
2018-12-15T08:22:56.682Z,-0.42
2018-12-15T08:25:26.951Z,-0.39
2018-12-15T08:27:55.988Z,-0.40
2018-12-15T08:30:25.097Z,-0.38
2018-12-15T08:32:54.097Z,-0.37
2018-12-15T08:35:23.775Z,-0.33
2018-12-15T08:37:52.866Z,-0.34
2018-12-15T08:40:22.713Z,-0.36
2018-12-15T08:42:51.835Z,-0.34
2018-12-15T08:45:21.068Z,-0.31
2018-12-15T08:47:50.097Z,-0.29
2018-12-15T08:50:19.097Z,-0.26
2018-12-15T08:52:48.248Z,-0.23
2018-12-15T08:55:17.336Z,-0.24
2018-12-15T08:57:46.438Z,-0.22
2018-12-15T09:00:15.740Z,-0.19
2018-12-15T09:02:44.873Z,-0.19
2018-12-15T09:05:15.013Z,-0.15
2018-12-15T09:07:44.090Z,-0.19
2018-12-15T09:10:13.255Z,-0.13
2018-12-15T09:12:42.274Z,-0.09
2018-12-15T09:15:11.640Z,-0.05
2018-12-15T09:17:40.691Z,0.02
2018-12-15T09:20:09.831Z,-0.01
2018-12-15T09:22:38.976Z,-0.03
2018-12-15T09:25:08.351Z,-0.02
2018-12-15T09:27:37.734Z,-0.03
2018-12-15T09:30:07.621Z,-0.03
2018-12-15T09:32:36.800Z,0.02
2018-12-15T09:35:05.953Z,0.06
2018-12-15T09:37:35.237Z,0.02
2018-12-15T09:40:05.042Z,0.09
2018-12-15T09:42:34.259Z,0.13
2018-12-15T09:45:03.599Z,0.20
2018-12-15T09:47:32.670Z,0.28
2018-12-15T09:50:01.788Z,0.26
2018-12-15T09:52:30.850Z,0.24
2018-12-15T09:55:00.479Z,0.20
2018-12-15T09:57:29.494Z,0.18
2018-12-15T09:59:58.598Z,0.23
2018-12-15T10:02:27.649Z,0.25
2018-12-15T10:04:56.853Z,0.28
2018-12-15T10:07:26.124Z,0.34
2018-12-15T10:09:55.260Z,0.34
2018-12-15T10:12:24.438Z,0.30
2018-12-15T10:14:53.544Z,0.38
2018-12-15T10:17:22.629Z,0.44
2018-12-15T10:19:51.742Z,0.43
2018-12-15T10:22:20.709Z,0.44
2018-12-15T10:24:49.725Z,0.42
2018-12-15T10:27:18.831Z,0.45
2018-12-15T10:29:53.426Z,0.49
2018-12-15T10:32:27.777Z,0.51
2018-12-15T10:34:56.934Z,0.48
2018-12-15T10:37:26.206Z,0.56
2018-12-15T10:39:55.183Z,0.65
2018-12-15T10:42:26.430Z,0.78
2018-12-15T10:44:55.420Z,0.77
2018-12-15T10:47:24.450Z,0.78
2018-12-15T10:49:53.554Z,0.77
2018-12-15T10:52:22.645Z,0.68
2018-12-15T10:54:51.729Z,0.75
2018-12-15T10:57:20.749Z,0.72
2018-12-15T10:59:49.832Z,0.75
2018-12-15T11:02:18.958Z,0.75
2018-12-15T11:04:48.124Z,0.89
2018-12-15T11:07:17.204Z,0.84
2018-12-15T11:09:46.320Z,0.71
2018-12-15T11:12:15.403Z,0.73
2018-12-15T11:14:51.067Z,0.91
2018-12-15T11:17:20.177Z,1.04
2018-12-15T11:19:49.257Z,0.96
2018-12-15T11:22:18.258Z,0.91
2018-12-15T11:24:47.255Z,0.88
2018-12-15T11:27:16.289Z,0.97
2018-12-15T11:29:45.305Z,0.89
2018-12-15T11:32:14.410Z,0.96
2018-12-15T11:34:43.665Z,1.04
2018-12-15T11:37:12.851Z,1.13
2018-12-15T11:39:41.897Z,1.06
2018-12-15T11:42:10.943Z,0.93
2018-12-15T11:44:40.144Z,0.76
2018-12-15T11:47:09.158Z,0.82
2018-12-15T11:49:43.493Z,0.75
2018-12-15T11:52:09.428Z,0.87
2018-12-15T11:54:39.025Z,0.77
2018-12-15T11:57:08.195Z,0.76
2018-12-15T11:59:37.427Z,0.87
2018-12-15T12:02:06.575Z,0.97
2018-12-15T12:04:35.556Z,1.00
2018-12-15T12:07:04.577Z,0.93
2018-12-15T12:09:33.657Z,0.89
2018-12-15T12:12:02.647Z,0.87
2018-12-15T12:14:31.730Z,0.84
2018-12-15T12:17:00.883Z,0.81
2018-12-15T12:19:29.878Z,0.89
2018-12-15T12:21:59.257Z,0.86
2018-12-15T12:24:28.367Z,0.76
2018-12-15T12:26:57.413Z,0.74
2018-12-15T12:29:26.500Z,0.72
2018-12-15T12:31:56.441Z,0.66
2018-12-15T12:34:25.563Z,0.69
2018-12-15T12:36:54.621Z,0.75
2018-12-15T12:39:23.670Z,0.69
2018-12-15T12:41:53.865Z,0.60
2018-12-15T12:44:22.938Z,0.52
2018-12-15T12:46:52.829Z,0.51
2018-12-15T12:49:21.937Z,0.48
2018-12-15T12:51:51.925Z,0.34
2018-12-15T12:54:21.083Z,0.24
2018-12-15T12:56:50.081Z,0.26
2018-12-15T12:59:19.108Z,0.26
2018-12-15T13:01:48.152Z,0.21
2018-12-15T13:04:17.125Z,0.18
2018-12-15T13:06:46.168Z,0.15
2018-12-15T13:09:15.542Z,0.16
2018-12-15T13:11:44.755Z,0.18
2018-12-15T13:14:13.895Z,0.18
2018-12-15T13:16:49.714Z,0.19
2018-12-15T13:19:18.738Z,0.14
2018-12-15T13:21:47.867Z,0.11
2018-12-15T13:24:17.123Z,0.07
2018-12-15T13:26:46.200Z,0.04
2018-12-15T13:29:15.327Z,0.01
2018-12-15T13:31:46.850Z,0.00
2018-12-15T13:34:15.834Z,-0.03
2018-12-15T13:36:45.410Z,-0.06
2018-12-15T13:39:14.678Z,-0.06
2018-12-15T13:41:43.701Z,-0.09
2018-12-15T13:44:12.760Z,-0.09
2018-12-15T13:46:41.882Z,-0.12
2018-12-15T13:49:11.237Z,-0.13
2018-12-15T13:51:40.339Z,-0.11
2018-12-15T13:54:09.527Z,-0.05
2018-12-15T13:56:38.608Z,0.04
2018-12-15T13:59:07.666Z,0.20
2018-12-15T14:01:37.730Z,0.03
2018-12-15T14:04:06.792Z,-0.15
2018-12-15T14:06:35.806Z,-0.21
2018-12-15T14:09:07.659Z,-0.23
2018-12-15T14:11:36.773Z,-0.26
2018-12-15T14:14:06.221Z,-0.28
2018-12-15T14:16:35.273Z,-0.29
2018-12-15T14:19:05.068Z,-0.34
2018-12-15T14:21:34.428Z,-0.33
2018-12-15T14:24:03.567Z,-0.33
2018-12-15T14:26:32.684Z,-0.38
2018-12-15T14:29:01.702Z,-0.38
2018-12-15T14:31:30.730Z,-0.39
2018-12-15T14:33:59.863Z,-0.40
2018-12-15T14:36:28.879Z,-0.40
2018-12-15T14:38:57.925Z,-0.41
2018-12-15T14:41:26.918Z,-0.43
2018-12-15T14:43:56.003Z,-0.41
2018-12-15T14:46:25.043Z,-0.45
2018-12-15T14:48:54.136Z,-0.50
2018-12-15T14:51:23.427Z,-0.52
2018-12-15T14:53:52.414Z,-0.53
2018-12-15T14:56:21.415Z,-0.54
2018-12-15T14:58:50.546Z,-0.57
2018-12-15T15:01:19.647Z,-0.61
2018-12-15T15:03:48.706Z,-0.66
2018-12-15T15:06:17.911Z,-0.68
2018-12-15T15:08:46.959Z,-0.80
2018-12-15T15:11:16.444Z,-0.88
2018-12-15T15:13:45.582Z,-0.93
2018-12-15T15:16:15.235Z,-0.98
2018-12-15T15:18:44.285Z,-0.94
2018-12-15T15:21:13.436Z,-1.05
2018-12-15T15:23:42.666Z,-1.11
2018-12-15T15:26:11.798Z,-1.13
2018-12-15T15:28:40.909Z,-1.18
2018-12-15T15:31:09.998Z,-1.13
2018-12-15T15:33:39.082Z,-1.12
2018-12-15T15:36:08.199Z,-1.11
2018-12-15T15:38:37.204Z,-1.03
2018-12-15T15:41:06.215Z,-1.02
2018-12-15T15:43:35.357Z,-1.01
2018-12-15T15:46:04.490Z,-0.93
2018-12-15T15:48:33.548Z,-0.92
2018-12-15T15:51:02.620Z,-0.95
2018-12-15T15:53:31.772Z,-0.91
2018-12-15T15:56:03.931Z,-0.92
2018-12-15T15:58:33.305Z,-0.98
2018-12-15T16:01:02.342Z,-0.97
2018-12-15T16:03:31.443Z,-0.92
2018-12-15T16:06:00.615Z,-0.92
2018-12-15T16:08:29.607Z,-0.95
2018-12-15T16:10:58.626Z,-0.95
2018-12-15T16:13:27.805Z,-1.00
2018-12-15T16:15:56.796Z,-1.07
2018-12-15T16:18:25.964Z,-1.17
2018-12-15T16:20:55.031Z,-1.17
2018-12-15T16:23:24.157Z,-1.20
2018-12-15T16:25:53.211Z,-1.24
2018-12-15T16:28:22.367Z,-1.30
2018-12-15T16:30:51.646Z,-1.25
2018-12-15T16:33:21.280Z,-1.28
2018-12-15T16:35:50.415Z,-1.26
2018-12-15T16:38:19.434Z,-1.25
2018-12-15T16:40:48.563Z,-1.31
2018-12-15T16:43:17.585Z,-1.38
2018-12-15T16:45:46.600Z,-1.47
2018-12-15T16:48:15.624Z,-1.49
2018-12-15T16:50:49.930Z,-1.54
2018-12-15T16:53:15.728Z,-1.52
2018-12-15T16:55:44.785Z,-1.42
2018-12-15T16:58:13.761Z,-1.28
2018-12-15T17:00:42.840Z,-1.26
2018-12-15T17:03:12.015Z,-1.25
2018-12-15T17:05:41.196Z,-1.27
2018-12-15T17:08:10.341Z,-1.27
2018-12-15T17:10:39.363Z,-1.34
2018-12-15T17:13:08.466Z,-1.39
2018-12-15T17:15:37.512Z,-1.43
2018-12-15T17:18:07.264Z,-1.42
2018-12-15T17:20:36.404Z,-1.43
2018-12-15T17:23:05.523Z,-1.45
2018-12-15T17:25:34.575Z,-1.53
2018-12-15T17:28:03.666Z,-1.56
2018-12-15T17:30:32.705Z,-1.60
2018-12-15T17:33:01.718Z,-1.61
2018-12-15T17:35:30.912Z,-1.54
2018-12-15T17:37:59.983Z,-1.53
2018-12-15T17:40:29.034Z,-1.51
2018-12-15T17:42:58.115Z,-1.50
2018-12-15T17:45:27.125Z,-1.53
2018-12-15T17:47:56.293Z,-1.54
2018-12-15T17:50:25.828Z,-1.57
2018-12-15T17:52:54.919Z,-1.56
2018-12-15T17:55:23.948Z,-1.56
2018-12-15T17:57:53.246Z,-1.56
2018-12-15T18:00:22.355Z,-1.55
2018-12-15T18:02:51.426Z,-1.57
2018-12-15T18:05:20.503Z,-1.57
2018-12-15T18:07:49.635Z,-1.54
2018-12-15T18:10:18.732Z,-1.51
2018-12-15T18:12:47.832Z,-1.48
2018-12-15T18:15:16.932Z,-1.50
2018-12-15T18:17:45.981Z,-1.44
2018-12-15T18:20:15.108Z,-1.38
2018-12-15T18:22:44.121Z,-1.38
2018-12-15T18:25:13.225Z,-1.34
2018-12-15T18:27:42.286Z,-1.28
2018-12-15T18:30:12.186Z,-1.27
2018-12-15T18:32:41.202Z,-1.26
2018-12-15T18:35:10.497Z,-1.25
2018-12-15T18:37:39.677Z,-1.22
2018-12-15T18:40:10.072Z,-1.17
2018-12-15T18:42:39.186Z,-1.15
2018-12-15T18:45:08.341Z,-1.08
2018-12-15T18:47:37.366Z,-1.08
2018-12-15T18:50:08.574Z,-1.03
2018-12-15T18:52:37.582Z,-1.03
2018-12-15T18:55:06.698Z,-1.02
2018-12-15T18:57:35.843Z,-1.01
2018-12-15T19:00:06.692Z,-0.95
2018-12-15T19:02:35.720Z,-0.86
2018-12-15T19:05:05.014Z,-0.88
2018-12-15T19:07:34.847Z,-0.90
2018-12-15T19:10:04.761Z,-0.86
2018-12-15T19:12:33.798Z,-0.84
2018-12-15T19:15:02.960Z,-0.86
2018-12-15T19:17:32.007Z,-0.88
2018-12-15T19:20:01.003Z,-0.82
2018-12-15T19:22:30.131Z,-0.83
2018-12-15T19:24:59.307Z,-0.81
2018-12-15T19:27:28.314Z,-0.80
2018-12-15T19:29:57.322Z,-0.79
2018-12-15T19:32:26.509Z,-0.79
2018-12-15T19:34:55.680Z,-0.77
2018-12-15T19:37:24.944Z,-0.79
2018-12-15T19:39:54.022Z,-0.77
2018-12-15T19:42:23.144Z,-0.75
2018-12-15T19:44:52.217Z,-0.68
2018-12-15T19:47:21.460Z,-0.70
2018-12-15T19:49:50.524Z,-0.67
2018-12-15T19:52:19.720Z,-0.68
2018-12-15T19:54:48.777Z,-0.69
2018-12-15T19:57:17.839Z,-0.67
2018-12-15T19:59:47.501Z,-0.65
2018-12-15T20:02:17.237Z,-0.65
2018-12-15T20:04:46.448Z,-0.64
2018-12-15T20:07:15.634Z,-0.60
2018-12-15T20:09:44.930Z,-0.57
2018-12-15T20:12:14.052Z,-0.57
2018-12-15T20:14:43.328Z,-0.54
2018-12-15T20:17:12.480Z,-0.54
2018-12-15T20:19:41.798Z,-0.55
2018-12-15T20:22:11.135Z,-0.56
2018-12-15T20:24:40.445Z,-0.54
2018-12-15T20:27:10.159Z,-0.52
2018-12-15T20:29:39.252Z,-0.50
2018-12-15T20:32:08.806Z,-0.50
2018-12-15T20:34:38.099Z,-0.45
2018-12-15T20:37:07.361Z,-0.46
2018-12-15T20:39:36.563Z,-0.42
2018-12-15T20:42:06.043Z,-0.37
2018-12-15T20:44:41.531Z,-0.38
2018-12-15T20:47:06.519Z,-0.38
2018-12-15T20:49:35.650Z,-0.36
2018-12-15T20:52:04.996Z,-0.35
2018-12-15T20:54:34.266Z,-0.28
2018-12-15T20:57:03.297Z,-0.27
2018-12-15T20:59:32.433Z,-0.29
2018-12-15T21:02:01.504Z,-0.29
2018-12-15T21:04:30.601Z,-0.29
2018-12-15T21:06:59.768Z,-0.28
2018-12-15T21:09:28.925Z,-0.24
2018-12-15T21:11:58.150Z,-0.21
2018-12-15T21:14:27.208Z,-0.24
2018-12-15T21:16:56.311Z,-0.24
2018-12-15T21:19:25.395Z,-0.25
2018-12-15T21:21:54.635Z,-0.25
2018-12-15T21:24:23.734Z,-0.28
2018-12-15T21:26:52.958Z,-0.28
2018-12-15T21:29:22.069Z,-0.28
2018-12-15T21:31:56.695Z,-0.32
2018-12-15T21:34:23.356Z,-0.33
2018-12-15T21:36:52.499Z,-0.34
2018-12-15T21:39:21.659Z,-0.38
2018-12-15T21:41:50.991Z,-0.39
2018-12-15T21:44:20.053Z,-0.36
2018-12-15T21:46:49.244Z,-0.40
2018-12-15T21:49:18.396Z,-0.45
2018-12-15T21:51:48.747Z,-0.45
2018-12-15T21:54:17.847Z,-0.54
2018-12-15T21:56:47.077Z,-0.65
2018-12-15T21:59:16.292Z,-0.88
2018-12-15T22:01:45.360Z,-0.88
2018-12-15T22:04:15.258Z,-1.00
2018-12-15T22:06:45.509Z,-1.10
2018-12-15T22:09:15.059Z,-1.23
2018-12-15T22:11:44.537Z,-1.42
2018-12-15T22:14:13.743Z,-1.20
2018-12-15T22:16:42.872Z,-1.29
2018-12-15T22:19:12.455Z,-1.28
2018-12-15T22:21:41.853Z,-1.38
2018-12-15T22:24:11.192Z,-1.46
2018-12-15T22:26:40.284Z,-1.44
2018-12-15T22:29:09.334Z,-1.43
2018-12-15T22:31:38.579Z,-1.50
2018-12-15T22:34:07.688Z,-1.49
2018-12-15T22:36:36.901Z,-1.55
2018-12-15T22:39:07.647Z,-1.53
2018-12-15T22:41:38.163Z,-1.54
2018-12-15T22:44:07.310Z,-1.62
2018-12-15T22:46:36.444Z,-1.63
2018-12-15T22:49:05.571Z,-1.67
2018-12-15T22:51:35.095Z,-1.67
2018-12-15T22:54:04.471Z,-1.69
2018-12-15T22:56:33.502Z,-1.84
2018-12-15T22:59:02.564Z,-1.91
2018-12-15T23:01:37.091Z,-1.98
2018-12-15T23:04:06.844Z,-1.95
2018-12-15T23:06:35.947Z,-1.92
2018-12-15T23:09:06.947Z,-1.96
2018-12-15T23:11:36.061Z,-2.04
2018-12-15T23:14:05.127Z,-2.05
2018-12-15T23:16:34.201Z,-2.05
2018-12-15T23:19:03.321Z,-2.18
2018-12-15T23:21:32.321Z,-2.12
2018-12-15T23:24:01.372Z,-2.20
2018-12-15T23:26:30.390Z,-2.25
2018-12-15T23:28:59.393Z,-2.26
2018-12-15T23:31:28.618Z,-2.24
2018-12-15T23:33:57.674Z,-2.26
2018-12-15T23:36:26.772Z,-2.43
2018-12-15T23:38:55.854Z,-2.50
2018-12-15T23:41:24.978Z,-2.49
2018-12-15T23:43:54.150Z,-2.43
2018-12-15T23:46:23.414Z,-2.34
2018-12-15T23:48:52.442Z,-2.42
2018-12-15T23:51:21.419Z,-2.52
2018-12-15T23:53:50.820Z,-2.44
2018-12-15T23:56:21.197Z,-2.44
2018-12-15T23:58:50.289Z,-2.48
